sensor_id;sensor_type;location;lat;lon;timestamp;P1;durP1;ratioP1;P2;durP2;ratioP2
3817;SDS011;1924;48.078;11.516;2023-07-09T04:31:42;34.23;;;0.80;;
3817;SDS011;1924;48.078;11.516;2023-07-09T05:08:32;34.37;;;0.80;;
3817;SDS011;1924;48.078;11.516;2023-07-09T05:10:59;34.07;;;0.80;;
3817;SDS011;1924;48.078;11.516;2023-07-09T05:13:26;33.83;;;0.80;;
3817;SDS011;1924;48.078;11.516;2023-07-09T05:15:53;34.37;;;0.80;;
3817;SDS011;1924;48.078;11.516;2023-07-09T05:18:21;34.47;;;0.80;;
3817;SDS011;1924;48.078;11.516;2023-07-09T05:20:49;34.70;;;0.80;;
3817;SDS011;1924;48.078;11.516;2023-07-09T05:23:16;34.73;;;0.80;;
3817;SDS011;1924;48.078;11.516;2023-07-09T05:25:44;34.63;;;0.83;;
3817;SDS011;1924;48.078;11.516;2023-07-09T05:28:11;34.83;;;0.80;;
3817;SDS011;1924;48.078;11.516;2023-07-09T05:30:40;34.67;;;0.80;;
3817;SDS011;1924;48.078;11.516;2023-07-09T05:35:43;34.57;;;0.80;;
3817;SDS011;1924;48.078;11.516;2023-07-09T05:38:11;34.47;;;0.80;;
3817;SDS011;1924;48.078;11.516;2023-07-09T05:40:38;34.63;;;0.80;;
3817;SDS011;1924;48.078;11.516;2023-07-09T05:43:06;34.70;;;0.80;;
3817;SDS011;1924;48.078;11.516;2023-07-09T05:45:33;34.47;;;0.80;;
3817;SDS011;1924;48.078;11.516;2023-07-09T05:50:36;34.60;;;0.80;;
3817;SDS011;1924;48.078;11.516;2023-07-09T05:55:39;34.57;;;0.80;;
3817;SDS011;1924;48.078;11.516;2023-07-09T06:00:51;34.60;;;0.80;;
3817;SDS011;1924;48.078;11.516;2023-07-09T06:03:21;34.47;;;0.80;;
3817;SDS011;1924;48.078;11.516;2023-07-09T06:05:51;34.37;;;0.80;;
3817;SDS011;1924;48.078;11.516;2023-07-09T06:08:18;34.40;;;0.80;;
3817;SDS011;1924;48.078;11.516;2023-07-09T06:10:54;34.40;;;0.80;;
3817;SDS011;1924;48.078;11.516;2023-07-09T06:13:22;34.33;;;0.80;;
3817;SDS011;1924;48.078;11.516;2023-07-09T06:15:50;34.30;;;0.80;;
3817;SDS011;1924;48.078;11.516;2023-07-09T06:18:20;34.20;;;0.80;;
3817;SDS011;1924;48.078;11.516;2023-07-09T06:20:48;34.17;;;0.80;;
3817;SDS011;1924;48.078;11.516;2023-07-09T06:23:15;34.07;;;0.80;;
3817;SDS011;1924;48.078;11.516;2023-07-09T06:25:42;34.10;;;0.80;;
3817;SDS011;1924;48.078;11.516;2023-07-09T06:28:12;34.27;;;0.80;;
3817;SDS011;1924;48.078;11.516;2023-07-09T06:30:39;34.27;;;0.80;;
3817;SDS011;1924;48.078;11.516;2023-07-09T06:33:08;34.00;;;0.80;;
3817;SDS011;1924;48.078;11.516;2023-07-09T06:35:35;34.17;;;0.80;;
3817;SDS011;1924;48.078;11.516;2023-07-09T06:38:02;33.93;;;0.80;;
3817;SDS011;1924;48.078;11.516;2023-07-09T06:40:29;34.17;;;0.80;;
3817;SDS011;1924;48.078;11.516;2023-07-09T06:42:55;34.00;;;0.80;;
3817;SDS011;1924;48.078;11.516;2023-07-09T06:45:22;34.17;;;0.80;;
3817;SDS011;1924;48.078;11.516;2023-07-09T06:47:49;34.10;;;0.80;;
3817;SDS011;1924;48.078;11.516;2023-07-09T06:50:17;34.30;;;0.80;;
3817;SDS011;1924;48.078;11.516;2023-07-09T06:52:44;34.20;;;0.80;;
3817;SDS011;1924;48.078;11.516;2023-07-09T07:00:45;34.27;;;0.80;;
3817;SDS011;1924;48.078;11.516;2023-07-09T07:03:14;34.47;;;0.80;;
3817;SDS011;1924;48.078;11.516;2023-07-09T07:05:44;34.33;;;0.80;;
3817;SDS011;1924;48.078;11.516;2023-07-09T07:08:13;34.27;;;0.80;;
3817;SDS011;1924;48.078;11.516;2023-07-09T07:10:41;34.50;;;0.80;;
3817;SDS011;1924;48.078;11.516;2023-07-09T07:13:07;34.57;;;0.80;;
3817;SDS011;1924;48.078;11.516;2023-07-09T07:15:36;34.47;;;0.80;;
3817;SDS011;1924;48.078;11.516;2023-07-09T07:18:03;34.47;;;0.80;;
3817;SDS011;1924;48.078;11.516;2023-07-09T07:20:30;34.37;;;0.80;;
3817;SDS011;1924;48.078;11.516;2023-07-09T07:22:59;34.30;;;0.80;;
3817;SDS011;1924;48.078;11.516;2023-07-09T07:25:25;34.37;;;0.80;;
3817;SDS011;1924;48.078;11.516;2023-07-09T07:27:52;34.47;;;0.80;;
3817;SDS011;1924;48.078;11.516;2023-07-09T07:30:19;34.40;;;0.80;;
3817;SDS011;1924;48.078;11.516;2023-07-09T07:32:46;34.30;;;0.80;;
3817;SDS011;1924;48.078;11.516;2023-07-09T07:35:14;34.37;;;0.80;;
3817;SDS011;1924;48.078;11.516;2023-07-09T07:37:42;34.40;;;0.80;;
3817;SDS011;1924;48.078;11.516;2023-07-09T07:40:10;34.33;;;0.80;;
3817;SDS011;1924;48.078;11.516;2023-07-09T07:42:37;34.40;;;0.80;;
3817;SDS011;1924;48.078;11.516;2023-07-09T07:45:04;34.30;;;0.80;;
3817;SDS011;1924;48.078;11.516;2023-07-09T07:47:32;34.37;;;0.80;;
3817;SDS011;1924;48.078;11.516;2023-07-09T07:49:59;34.47;;;0.80;;
3817;SDS011;1924;48.078;11.516;2023-07-09T07:52:27;34.23;;;0.80;;
3817;SDS011;1924;48.078;11.516;2023-07-09T07:54:54;34.47;;;0.80;;
3817;SDS011;1924;48.078;11.516;2023-07-09T07:57:23;34.37;;;0.80;;
3817;SDS011;1924;48.078;11.516;2023-07-09T07:59:50;34.20;;;0.80;;
3817;SDS011;1924;48.078;11.516;2023-07-09T08:02:17;34.37;;;0.80;;
3817;SDS011;1924;48.078;11.516;2023-07-09T08:04:44;34.40;;;0.80;;
3817;SDS011;1924;48.078;11.516;2023-07-09T08:07:11;34.33;;;0.80;;
3817;SDS011;1924;48.078;11.516;2023-07-09T08:09:38;34.50;;;0.80;;
3817;SDS011;1924;48.078;11.516;2023-07-09T08:12:05;34.27;;;0.80;;
3817;SDS011;1924;48.078;11.516;2023-07-09T08:14:38;34.23;;;0.80;;
3817;SDS011;1924;48.078;11.516;2023-07-09T08:17:05;34.40;;;0.80;;
3817;SDS011;1924;48.078;11.516;2023-07-09T08:19:43;34.33;;;0.80;;
3817;SDS011;1924;48.078;11.516;2023-07-09T08:22:11;34.40;;;0.80;;
3817;SDS011;1924;48.078;11.516;2023-07-09T08:24:38;34.37;;;0.80;;
3817;SDS011;1924;48.078;11.516;2023-07-09T08:27:06;34.53;;;0.80;;
3817;SDS011;1924;48.078;11.516;2023-07-09T08:29:33;34.27;;;0.80;;
3817;SDS011;1924;48.078;11.516;2023-07-09T08:32:01;34.27;;;0.80;;
3817;SDS011;1924;48.078;11.516;2023-07-09T08:34:28;34.40;;;0.80;;
3817;SDS011;1924;48.078;11.516;2023-07-09T08:36:55;34.53;;;0.80;;
3817;SDS011;1924;48.078;11.516;2023-07-09T08:39:22;34.67;;;0.80;;
3817;SDS011;1924;48.078;11.516;2023-07-09T08:41:51;34.80;;;0.80;;
3817;SDS011;1924;48.078;11.516;2023-07-09T08:44:25;34.60;;;0.80;;
3817;SDS011;1924;48.078;11.516;2023-07-09T08:47:12;34.90;;;0.80;;
3817;SDS011;1924;48.078;11.516;2023-07-09T08:49:43;34.90;;;0.80;;
3817;SDS011;1924;48.078;11.516;2023-07-09T08:52:14;34.87;;;0.80;;
3817;SDS011;1924;48.078;11.516;2023-07-09T08:54:48;34.57;;;0.80;;
3817;SDS011;1924;48.078;11.516;2023-07-09T08:57:18;34.70;;;0.80;;
3817;SDS011;1924;48.078;11.516;2023-07-09T08:59:48;34.53;;;0.80;;
3817;SDS011;1924;48.078;11.516;2023-07-09T09:02:21;34.63;;;0.80;;
3817;SDS011;1924;48.078;11.516;2023-07-09T09:04:56;34.63;;;0.80;;
3817;SDS011;1924;48.078;11.516;2023-07-09T09:07:31;34.73;;;0.80;;
3817;SDS011;1924;48.078;11.516;2023-07-09T09:10:05;34.77;;;0.80;;
3817;SDS011;1924;48.078;11.516;2023-07-09T09:12:37;34.70;;;0.80;;
3817;SDS011;1924;48.078;11.516;2023-07-09T09:15:10;34.70;;;0.80;;
3817;SDS011;1924;48.078;11.516;2023-07-09T09:17:42;34.80;;;0.80;;
3817;SDS011;1924;48.078;11.516;2023-07-09T09:20:09;34.73;;;0.80;;
3817;SDS011;1924;48.078;11.516;2023-07-09T09:22:40;34.60;;;0.80;;
3817;SDS011;1924;48.078;11.516;2023-07-09T09:25:15;34.63;;;0.80;;
3817;SDS011;1924;48.078;11.516;2023-07-09T09:27:47;34.57;;;0.80;;
3817;SDS011;1924;48.078;11.516;2023-07-09T09:30:14;34.67;;;0.80;;
3817;SDS011;1924;48.078;11.516;2023-07-09T09:32:44;34.87;;;0.80;;
3817;SDS011;1924;48.078;11.516;2023-07-09T09:35:14;34.80;;;0.80;;
3817;SDS011;1924;48.078;11.516;2023-07-09T09:37:44;34.87;;;0.80;;
3817;SDS011;1924;48.078;11.516;2023-07-09T09:40:20;34.67;;;0.80;;
3817;SDS011;1924;48.078;11.516;2023-07-09T09:42:48;34.80;;;0.80;;
3817;SDS011;1924;48.078;11.516;2023-07-09T09:45:17;35.03;;;0.80;;
3817;SDS011;1924;48.078;11.516;2023-07-09T09:47:47;34.80;;;0.80;;
3817;SDS011;1924;48.078;11.516;2023-07-09T09:50:14;34.80;;;0.80;;
3817;SDS011;1924;48.078;11.516;2023-07-09T09:52:42;34.77;;;0.80;;
3817;SDS011;1924;48.078;11.516;2023-07-09T09:55:10;34.77;;;0.80;;
3817;SDS011;1924;48.078;11.516;2023-07-09T09:57:39;34.67;;;0.80;;
3817;SDS011;1924;48.078;11.516;2023-07-09T10:00:12;34.67;;;0.80;;
3817;SDS011;1924;48.078;11.516;2023-07-09T10:02:41;34.57;;;0.80;;
3817;SDS011;1924;48.078;11.516;2023-07-09T10:05:12;34.67;;;0.80;;
3817;SDS011;1924;48.078;11.516;2023-07-09T10:07:43;34.57;;;0.80;;
3817;SDS011;1924;48.078;11.516;2023-07-09T10:10:18;34.77;;;0.80;;
3817;SDS011;1924;48.078;11.516;2023-07-09T10:12:50;35.00;;;0.80;;
3817;SDS011;1924;48.078;11.516;2023-07-09T10:15:21;34.90;;;0.80;;
3817;SDS011;1924;48.078;11.516;2023-07-09T10:17:58;34.67;;;0.80;;
3817;SDS011;1924;48.078;11.516;2023-07-09T10:20:32;34.80;;;0.80;;
3817;SDS011;1924;48.078;11.516;2023-07-09T10:23:02;34.67;;;0.80;;
3817;SDS011;1924;48.078;11.516;2023-07-09T10:25:39;34.97;;;0.90;;
3817;SDS011;1924;48.078;11.516;2023-07-09T10:31:07;34.83;;;0.80;;
3817;SDS011;1924;48.078;11.516;2023-07-09T10:33:41;34.70;;;0.80;;
3817;SDS011;1924;48.078;11.516;2023-07-09T10:36:21;34.67;;;0.80;;
3817;SDS011;1924;48.078;11.516;2023-07-09T10:38:57;34.63;;;0.80;;
3817;SDS011;1924;48.078;11.516;2023-07-09T10:41:29;34.43;;;0.80;;
3817;SDS011;1924;48.078;11.516;2023-07-09T10:43:58;34.77;;;0.80;;
3817;SDS011;1924;48.078;11.516;2023-07-09T10:46:31;34.90;;;0.80;;
3817;SDS011;1924;48.078;11.516;2023-07-09T10:49:00;34.83;;;0.80;;
3817;SDS011;1924;48.078;11.516;2023-07-09T10:54:04;34.87;;;0.80;;
3817;SDS011;1924;48.078;11.516;2023-07-09T10:56:37;34.73;;;0.80;;
3817;SDS011;1924;48.078;11.516;2023-07-09T10:59:09;34.57;;;0.80;;
3817;SDS011;1924;48.078;11.516;2023-07-09T11:01:43;34.37;;;0.80;;
3817;SDS011;1924;48.078;11.516;2023-07-09T11:04:15;34.47;;;0.80;;
3817;SDS011;1924;48.078;11.516;2023-07-09T11:06:50;34.37;;;0.80;;
3817;SDS011;1924;48.078;11.516;2023-07-09T11:09:22;34.23;;;0.80;;
3817;SDS011;1924;48.078;11.516;2023-07-09T11:11:54;34.33;;;0.80;;
3817;SDS011;1924;48.078;11.516;2023-07-09T11:14:26;34.17;;;0.80;;
3817;SDS011;1924;48.078;11.516;2023-07-09T11:16:57;34.43;;;0.80;;
3817;SDS011;1924;48.078;11.516;2023-07-09T11:19:25;34.50;;;0.80;;
3817;SDS011;1924;48.078;11.516;2023-07-09T11:22:04;34.57;;;0.77;;
3817;SDS011;1924;48.078;11.516;2023-07-09T11:24:36;34.57;;;0.80;;
3817;SDS011;1924;48.078;11.516;2023-07-09T11:27:16;34.53;;;0.80;;
3817;SDS011;1924;48.078;11.516;2023-07-09T11:29:45;34.67;;;0.80;;
3817;SDS011;1924;48.078;11.516;2023-07-09T11:32:17;34.37;;;0.80;;
3817;SDS011;1924;48.078;11.516;2023-07-09T11:34:45;34.47;;;0.80;;
3817;SDS011;1924;48.078;11.516;2023-07-09T11:37:13;34.27;;;0.80;;
3817;SDS011;1924;48.078;11.516;2023-07-09T11:39:43;34.27;;;0.80;;
3817;SDS011;1924;48.078;11.516;2023-07-09T11:42:25;34.47;;;0.80;;
3817;SDS011;1924;48.078;11.516;2023-07-09T11:44:54;34.57;;;0.80;;
3817;SDS011;1924;48.078;11.516;2023-07-09T11:47:28;34.70;;;0.80;;
3817;SDS011;1924;48.078;11.516;2023-07-09T11:49:59;34.97;;;0.80;;
3817;SDS011;1924;48.078;11.516;2023-07-09T11:52:27;35.07;;;0.80;;
3817;SDS011;1924;48.078;11.516;2023-07-09T11:55:02;34.97;;;0.80;;
3817;SDS011;1924;48.078;11.516;2023-07-09T11:57:46;35.00;;;0.80;;
3817;SDS011;1924;48.078;11.516;2023-07-09T12:00:14;34.90;;;0.80;;
3817;SDS011;1924;48.078;11.516;2023-07-09T12:02:41;34.97;;;0.80;;
3817;SDS011;1924;48.078;11.516;2023-07-09T12:05:08;34.83;;;0.80;;
3817;SDS011;1924;48.078;11.516;2023-07-09T12:07:36;34.80;;;0.80;;
3817;SDS011;1924;48.078;11.516;2023-07-09T12:10:09;34.73;;;0.80;;
3817;SDS011;1924;48.078;11.516;2023-07-09T12:12:44;34.90;;;0.80;;
3817;SDS011;1924;48.078;11.516;2023-07-09T12:15:12;35.07;;;0.80;;
3817;SDS011;1924;48.078;11.516;2023-07-09T12:17:43;35.30;;;0.80;;
3817;SDS011;1924;48.078;11.516;2023-07-09T12:20:19;35.50;;;0.80;;
3817;SDS011;1924;48.078;11.516;2023-07-09T12:22:46;35.83;;;0.80;;
3817;SDS011;1924;48.078;11.516;2023-07-09T12:25:19;35.87;;;0.80;;
3817;SDS011;1924;48.078;11.516;2023-07-09T12:27:48;36.17;;;0.80;;
3817;SDS011;1924;48.078;11.516;2023-07-09T12:30:15;36.30;;;0.80;;
3817;SDS011;1924;48.078;11.516;2023-07-09T12:32:45;36.30;;;0.80;;
3817;SDS011;1924;48.078;11.516;2023-07-09T12:35:14;36.37;;;0.80;;
3817;SDS011;1924;48.078;11.516;2023-07-09T12:40:18;36.50;;;0.80;;
3817;SDS011;1924;48.078;11.516;2023-07-09T12:42:49;36.77;;;0.80;;
3817;SDS011;1924;48.078;11.516;2023-07-09T12:45:17;36.80;;;0.80;;
3817;SDS011;1924;48.078;11.516;2023-07-09T12:47:46;36.87;;;0.80;;
3817;SDS011;1924;48.078;11.516;2023-07-09T12:50:17;36.63;;;0.80;;
3817;SDS011;1924;48.078;11.516;2023-07-09T12:52:46;36.63;;;0.80;;
3817;SDS011;1924;48.078;11.516;2023-07-09T12:55:20;36.67;;;0.80;;
3817;SDS011;1924;48.078;11.516;2023-07-09T12:57:50;36.40;;;0.80;;
3817;SDS011;1924;48.078;11.516;2023-07-09T13:00:17;36.17;;;0.80;;
3817;SDS011;1924;48.078;11.516;2023-07-09T13:02:45;35.97;;;0.80;;
3817;SDS011;1924;48.078;11.516;2023-07-09T13:05:20;35.67;;;0.80;;
3817;SDS011;1924;48.078;11.516;2023-07-09T13:07:49;35.97;;;0.80;;
3817;SDS011;1924;48.078;11.516;2023-07-09T13:10:19;35.67;;;0.80;;
3817;SDS011;1924;48.078;11.516;2023-07-09T13:12:51;35.73;;;0.80;;
3817;SDS011;1924;48.078;11.516;2023-07-09T13:15:21;35.63;;;0.80;;
3817;SDS011;1924;48.078;11.516;2023-07-09T13:17:57;35.27;;;0.80;;
3817;SDS011;1924;48.078;11.516;2023-07-09T13:20:25;35.60;;;0.80;;
3817;SDS011;1924;48.078;11.516;2023-07-09T13:22:52;35.50;;;0.80;;
3817;SDS011;1924;48.078;11.516;2023-07-09T13:25:19;35.47;;;0.80;;
3817;SDS011;1924;48.078;11.516;2023-07-09T13:27:47;35.37;;;0.80;;
3817;SDS011;1924;48.078;11.516;2023-07-09T13:30:14;35.40;;;0.80;;
3817;SDS011;1924;48.078;11.516;2023-07-09T13:32:41;35.23;;;0.80;;
3817;SDS011;1924;48.078;11.516;2023-07-09T13:35:12;35.27;;;0.90;;
3817;SDS011;1924;48.078;11.516;2023-07-09T13:37:41;35.43;;;0.80;;
3817;SDS011;1924;48.078;11.516;2023-07-09T13:40:09;35.40;;;0.80;;
3817;SDS011;1924;48.078;11.516;2023-07-09T13:42:38;35.43;;;0.80;;
3817;SDS011;1924;48.078;11.516;2023-07-09T13:45:09;35.27;;;0.80;;
3817;SDS011;1924;48.078;11.516;2023-07-09T13:47:47;35.67;;;0.80;;
3817;SDS011;1924;48.078;11.516;2023-07-09T13:50:15;35.50;;;0.80;;
3817;SDS011;1924;48.078;11.516;2023-07-09T13:52:42;35.63;;;0.80;;
3817;SDS011;1924;48.078;11.516;2023-07-09T13:55:14;35.67;;;0.80;;
3817;SDS011;1924;48.078;11.516;2023-07-09T13:57:44;35.80;;;0.80;;
3817;SDS011;1924;48.078;11.516;2023-07-09T14:00:12;35.80;;;0.80;;
3817;SDS011;1924;48.078;11.516;2023-07-09T14:02:39;35.70;;;0.80;;
3817;SDS011;1924;48.078;11.516;2023-07-09T14:05:07;35.50;;;0.80;;
3817;SDS011;1924;48.078;11.516;2023-07-09T14:07:36;35.67;;;0.80;;
3817;SDS011;1924;48.078;11.516;2023-07-09T14:10:05;35.77;;;0.80;;
3817;SDS011;1924;48.078;11.516;2023-07-09T14:12:36;35.70;;;0.80;;
3817;SDS011;1924;48.078;11.516;2023-07-09T14:15:09;35.67;;;0.80;;
3817;SDS011;1924;48.078;11.516;2023-07-09T14:17:42;35.57;;;0.80;;
3817;SDS011;1924;48.078;11.516;2023-07-09T14:20:13;35.67;;;0.80;;
3817;SDS011;1924;48.078;11.516;2023-07-09T14:25:06;35.90;;;0.80;;
3817;SDS011;1924;48.078;11.516;2023-07-09T14:27:40;35.87;;;0.80;;
3817;SDS011;1924;48.078;11.516;2023-07-09T14:30:08;36.00;;;0.80;;
3817;SDS011;1924;48.078;11.516;2023-07-09T14:32:41;36.13;;;0.80;;
3817;SDS011;1924;48.078;11.516;2023-07-09T14:35:11;36.13;;;0.80;;
3817;SDS011;1924;48.078;11.516;2023-07-09T14:37:39;36.07;;;0.80;;
3817;SDS011;1924;48.078;11.516;2023-07-09T14:40:06;36.20;;;0.80;;
3817;SDS011;1924;48.078;11.516;2023-07-09T14:42:34;36.13;;;0.80;;
3817;SDS011;1924;48.078;11.516;2023-07-09T14:45:02;36.33;;;0.80;;
3817;SDS011;1924;48.078;11.516;2023-07-09T14:47:30;36.30;;;0.80;;
3817;SDS011;1924;48.078;11.516;2023-07-09T14:49:57;36.13;;;0.80;;
3817;SDS011;1924;48.078;11.516;2023-07-09T14:52:23;35.87;;;0.80;;
3817;SDS011;1924;48.078;11.516;2023-07-09T14:54:50;36.07;;;0.80;;
3817;SDS011;1924;48.078;11.516;2023-07-09T14:57:18;36.00;;;0.80;;
3817;SDS011;1924;48.078;11.516;2023-07-09T14:59:47;35.97;;;0.80;;
3817;SDS011;1924;48.078;11.516;2023-07-09T15:02:21;36.20;;;0.80;;
3817;SDS011;1924;48.078;11.516;2023-07-09T15:04:57;35.97;;;0.80;;
3817;SDS011;1924;48.078;11.516;2023-07-09T15:07:23;36.17;;;0.80;;
3817;SDS011;1924;48.078;11.516;2023-07-09T15:09:54;36.17;;;0.80;;
3817;SDS011;1924;48.078;11.516;2023-07-09T15:12:25;36.20;;;0.80;;
3817;SDS011;1924;48.078;11.516;2023-07-09T15:14:54;36.27;;;0.80;;
3817;SDS011;1924;48.078;11.516;2023-07-09T15:17:26;36.17;;;0.80;;
3817;SDS011;1924;48.078;11.516;2023-07-09T15:19:53;36.10;;;0.80;;
3817;SDS011;1924;48.078;11.516;2023-07-09T15:22:24;36.00;;;0.80;;
3817;SDS011;1924;48.078;11.516;2023-07-09T15:24:54;36.13;;;0.80;;
3817;SDS011;1924;48.078;11.516;2023-07-09T15:27:21;36.03;;;0.80;;
3817;SDS011;1924;48.078;11.516;2023-07-09T15:29:48;35.97;;;0.80;;
3817;SDS011;1924;48.078;11.516;2023-07-09T15:32:15;36.10;;;0.80;;
3817;SDS011;1924;48.078;11.516;2023-07-09T15:34:41;36.10;;;0.80;;
3817;SDS011;1924;48.078;11.516;2023-07-09T15:37:10;35.93;;;0.80;;
3817;SDS011;1924;48.078;11.516;2023-07-09T15:39:40;36.13;;;0.80;;
3817;SDS011;1924;48.078;11.516;2023-07-09T15:42:11;35.97;;;0.80;;
3817;SDS011;1924;48.078;11.516;2023-07-09T15:44:38;35.87;;;0.80;;
3817;SDS011;1924;48.078;11.516;2023-07-09T15:47:08;36.07;;;0.80;;
3817;SDS011;1924;48.078;11.516;2023-07-09T15:49:42;36.10;;;0.80;;
3817;SDS011;1924;48.078;11.516;2023-07-09T15:52:10;36.00;;;0.80;;
3817;SDS011;1924;48.078;11.516;2023-07-09T15:54:36;36.13;;;0.80;;
3817;SDS011;1924;48.078;11.516;2023-07-09T15:57:05;36.10;;;0.80;;
3817;SDS011;1924;48.078;11.516;2023-07-09T15:59:33;36.03;;;0.80;;
3817;SDS011;1924;48.078;11.516;2023-07-09T16:02:02;36.07;;;0.80;;
3817;SDS011;1924;48.078;11.516;2023-07-09T16:04:35;36.07;;;0.80;;
3817;SDS011;1924;48.078;11.516;2023-07-09T16:07:02;36.30;;;0.80;;
3817;SDS011;1924;48.078;11.516;2023-07-09T16:09:29;36.07;;;0.80;;
3817;SDS011;1924;48.078;11.516;2023-07-09T16:11:56;35.93;;;0.80;;
3817;SDS011;1924;48.078;11.516;2023-07-09T16:14:24;36.23;;;0.80;;
3817;SDS011;1924;48.078;11.516;2023-07-09T16:16:53;36.17;;;0.80;;
3817;SDS011;1924;48.078;11.516;2023-07-09T16:19:22;36.20;;;0.80;;
3817;SDS011;1924;48.078;11.516;2023-07-09T16:21:51;36.20;;;0.80;;
3817;SDS011;1924;48.078;11.516;2023-07-09T16:24:21;36.30;;;0.80;;
3817;SDS011;1924;48.078;11.516;2023-07-09T16:26:51;36.20;;;0.80;;
3817;SDS011;1924;48.078;11.516;2023-07-09T16:29:18;36.37;;;0.80;;
3817;SDS011;1924;48.078;11.516;2023-07-09T16:31:52;36.27;;;0.80;;
3817;SDS011;1924;48.078;11.516;2023-07-09T16:34:20;36.27;;;0.80;;
3817;SDS011;1924;48.078;11.516;2023-07-09T16:36:47;36.33;;;0.80;;
3817;SDS011;1924;48.078;11.516;2023-07-09T16:39:24;36.37;;;0.80;;
3817;SDS011;1924;48.078;11.516;2023-07-09T16:41:53;36.47;;;0.80;;
3817;SDS011;1924;48.078;11.516;2023-07-09T16:44:21;36.17;;;0.80;;
3817;SDS011;1924;48.078;11.516;2023-07-09T16:46:49;36.13;;;0.80;;
3817;SDS011;1924;48.078;11.516;2023-07-09T16:49:30;36.27;;;0.80;;
3817;SDS011;1924;48.078;11.516;2023-07-09T16:52:01;36.10;;;0.80;;
3817;SDS011;1924;48.078;11.516;2023-07-09T16:54:29;36.17;;;0.80;;
3817;SDS011;1924;48.078;11.516;2023-07-09T16:56:55;36.20;;;0.80;;
3817;SDS011;1924;48.078;11.516;2023-07-09T16:59:22;36.37;;;0.80;;
3817;SDS011;1924;48.078;11.516;2023-07-09T17:01:49;36.30;;;0.80;;
3817;SDS011;1924;48.078;11.516;2023-07-09T17:04:20;36.17;;;0.80;;
3817;SDS011;1924;48.078;11.516;2023-07-09T17:06:50;36.20;;;0.80;;
3817;SDS011;1924;48.078;11.516;2023-07-09T17:09:18;36.03;;;0.80;;
3817;SDS011;1924;48.078;11.516;2023-07-09T17:11:46;36.10;;;0.80;;
3817;SDS011;1924;48.078;11.516;2023-07-09T17:14:23;36.30;;;0.80;;
3817;SDS011;1924;48.078;11.516;2023-07-09T17:16:50;36.23;;;0.80;;
3817;SDS011;1924;48.078;11.516;2023-07-09T17:19:17;36.07;;;0.80;;
3817;SDS011;1924;48.078;11.516;2023-07-09T17:21:44;36.13;;;0.80;;
3817;SDS011;1924;48.078;11.516;2023-07-09T17:24:19;36.07;;;0.80;;
3817;SDS011;1924;48.078;11.516;2023-07-09T17:26:48;36.07;;;0.80;;
3817;SDS011;1924;48.078;11.516;2023-07-09T17:29:15;36.20;;;0.80;;
3817;SDS011;1924;48.078;11.516;2023-07-09T17:31:43;36.23;;;0.80;;
3817;SDS011;1924;48.078;11.516;2023-07-09T17:34:10;36.30;;;0.80;;
3817;SDS011;1924;48.078;11.516;2023-07-09T17:36:37;36.07;;;0.80;;
3817;SDS011;1924;48.078;11.516;2023-07-09T17:39:04;36.50;;;0.80;;
3817;SDS011;1924;48.078;11.516;2023-07-09T17:41:32;36.17;;;0.80;;
3817;SDS011;1924;48.078;11.516;2023-07-09T17:43:59;36.07;;;0.80;;
3817;SDS011;1924;48.078;11.516;2023-07-09T17:46:26;36.17;;;0.80;;
3817;SDS011;1924;48.078;11.516;2023-07-09T17:48:53;36.47;;;0.80;;
3817;SDS011;1924;48.078;11.516;2023-07-09T17:51:19;36.47;;;0.80;;
3817;SDS011;1924;48.078;11.516;2023-07-09T17:53:46;36.30;;;0.80;;
3817;SDS011;1924;48.078;11.516;2023-07-09T17:56:16;36.50;;;0.80;;
3817;SDS011;1924;48.078;11.516;2023-07-09T17:58:48;36.47;;;0.80;;
3817;SDS011;1924;48.078;11.516;2023-07-09T18:01:15;36.57;;;0.80;;
3817;SDS011;1924;48.078;11.516;2023-07-09T18:03:41;36.67;;;0.80;;
3817;SDS011;1924;48.078;11.516;2023-07-09T18:06:10;36.57;;;0.80;;
3817;SDS011;1924;48.078;11.516;2023-07-09T18:08:40;36.57;;;0.80;;
3817;SDS011;1924;48.078;11.516;2023-07-09T18:11:11;36.67;;;0.80;;
3817;SDS011;1924;48.078;11.516;2023-07-09T18:13:52;36.57;;;0.80;;
3817;SDS011;1924;48.078;11.516;2023-07-09T18:16:20;36.77;;;0.80;;
3817;SDS011;1924;48.078;11.516;2023-07-09T18:18:47;36.47;;;0.80;;
3817;SDS011;1924;48.078;11.516;2023-07-09T18:21:13;36.70;;;0.80;;
3817;SDS011;1924;48.078;11.516;2023-07-09T18:23:40;36.63;;;0.80;;
3817;SDS011;1924;48.078;11.516;2023-07-09T18:26:08;36.63;;;0.80;;
3817;SDS011;1924;48.078;11.516;2023-07-09T18:28:38;36.67;;;0.80;;
3817;SDS011;1924;48.078;11.516;2023-07-09T18:31:10;36.67;;;0.80;;
3817;SDS011;1924;48.078;11.516;2023-07-09T18:33:37;36.47;;;0.80;;
3817;SDS011;1924;48.078;11.516;2023-07-09T18:36:04;36.67;;;0.80;;
3817;SDS011;1924;48.078;11.516;2023-07-09T18:38:30;36.53;;;0.80;;
3817;SDS011;1924;48.078;11.516;2023-07-09T18:40:57;36.70;;;0.80;;
3817;SDS011;1924;48.078;11.516;2023-07-09T18:43:24;36.73;;;0.80;;
3817;SDS011;1924;48.078;11.516;2023-07-09T18:45:51;36.60;;;0.80;;
3817;SDS011;1924;48.078;11.516;2023-07-09T18:48:23;36.63;;;0.80;;
3817;SDS011;1924;48.078;11.516;2023-07-09T18:50:50;36.77;;;0.80;;
3817;SDS011;1924;48.078;11.516;2023-07-09T18:53:20;36.63;;;0.80;;
3817;SDS011;1924;48.078;11.516;2023-07-09T18:55:52;36.67;;;0.80;;
3817;SDS011;1924;48.078;11.516;2023-07-09T18:58:20;36.67;;;0.80;;
3817;SDS011;1924;48.078;11.516;2023-07-09T19:00:50;36.57;;;0.80;;
3817;SDS011;1924;48.078;11.516;2023-07-09T19:03:19;36.47;;;0.80;;
3817;SDS011;1924;48.078;11.516;2023-07-09T19:05:50;36.63;;;0.80;;
3817;SDS011;1924;48.078;11.516;2023-07-09T19:08:18;36.90;;;0.80;;
3817;SDS011;1924;48.078;11.516;2023-07-09T19:10:49;36.73;;;0.80;;
3817;SDS011;1924;48.078;11.516;2023-07-09T19:13:16;36.87;;;0.80;;
3817;SDS011;1924;48.078;11.516;2023-07-09T19:15:43;36.77;;;0.80;;
3817;SDS011;1924;48.078;11.516;2023-07-09T19:18:14;36.83;;;0.80;;
3817;SDS011;1924;48.078;11.516;2023-07-09T19:20:46;36.73;;;0.80;;
3817;SDS011;1924;48.078;11.516;2023-07-09T19:23:13;36.63;;;0.80;;
3817;SDS011;1924;48.078;11.516;2023-07-09T19:25:42;36.67;;;0.80;;
3817;SDS011;1924;48.078;11.516;2023-07-09T19:28:10;36.67;;;0.80;;
3817;SDS011;1924;48.078;11.516;2023-07-09T19:30:37;36.57;;;0.80;;
3817;SDS011;1924;48.078;11.516;2023-07-09T19:33:04;36.73;;;0.80;;
3817;SDS011;1924;48.078;11.516;2023-07-09T19:35:32;36.77;;;0.80;;
3817;SDS011;1924;48.078;11.516;2023-07-09T19:38:01;36.63;;;0.80;;
3817;SDS011;1924;48.078;11.516;2023-07-09T19:40:28;36.73;;;0.80;;
3817;SDS011;1924;48.078;11.516;2023-07-09T19:42:55;36.67;;;0.80;;
3817;SDS011;1924;48.078;11.516;2023-07-09T19:45:23;36.67;;;0.80;;
3817;SDS011;1924;48.078;11.516;2023-07-09T19:47:51;36.37;;;0.80;;
3817;SDS011;1924;48.078;11.516;2023-07-09T19:50:22;36.57;;;0.80;;
3817;SDS011;1924;48.078;11.516;2023-07-09T19:52:50;36.23;;;0.80;;
3817;SDS011;1924;48.078;11.516;2023-07-09T19:55:20;36.37;;;0.80;;
3817;SDS011;1924;48.078;11.516;2023-07-09T19:57:49;36.53;;;0.80;;
3817;SDS011;1924;48.078;11.516;2023-07-09T20:00:17;36.43;;;0.80;;
3817;SDS011;1924;48.078;11.516;2023-07-09T20:02:46;36.43;;;0.80;;
3817;SDS011;1924;48.078;11.516;2023-07-09T20:05:15;36.50;;;0.80;;
3817;SDS011;1924;48.078;11.516;2023-07-09T20:07:45;36.37;;;0.80;;
3817;SDS011;1924;48.078;11.516;2023-07-09T20:10:14;36.47;;;0.80;;
3817;SDS011;1924;48.078;11.516;2023-07-09T20:12:42;36.40;;;0.80;;
3817;SDS011;1924;48.078;11.516;2023-07-09T20:15:16;36.13;;;0.80;;
3817;SDS011;1924;48.078;11.516;2023-07-09T20:17:46;36.37;;;0.80;;
3817;SDS011;1924;48.078;11.516;2023-07-09T20:20:13;36.37;;;0.80;;
3817;SDS011;1924;48.078;11.516;2023-07-09T20:22:40;36.37;;;0.80;;
3817;SDS011;1924;48.078;11.516;2023-07-09T20:25:14;36.37;;;0.80;;
3817;SDS011;1924;48.078;11.516;2023-07-09T20:27:44;36.43;;;0.80;;
3817;SDS011;1924;48.078;11.516;2023-07-09T20:30:14;36.27;;;0.80;;
3817;SDS011;1924;48.078;11.516;2023-07-09T20:32:41;36.13;;;0.80;;